Time;durP1;ratioP1;P1;durP2;ratioP2;P2;SDS_P1;SDS_P2;PMS_P1;PMS_P2;Temp;Humidity;BMP_temperature;BMP_pressure;BME280_temperature;BME280_humidity;BME280_pressure;Samples;Min_cycle;Max_cycle;Signal;HPM_P1;HPM_P2
2022/04/22 00:00:39;;;;;;;;;13.50;7.50;;;;;16.37;43.01;100151.16;4984017;28;45483;-60
2022/04/22 00:03:08;;;;;;;;;10.25;7.50;;;;;16.32;43.26;100145.41;4987862;28;45456;-61
2022/04/22 00:05:35;;;;;;;;;8.25;8.00;;;;;16.27;43.22;100137.84;4984760;28;45822;-60
2022/04/22 00:08:01;;;;;;;;;8.50;8.50;;;;;16.26;43.32;100141.50;4988067;28;45595;-60
2022/04/22 00:10:26;;;;;;;;;7.25;7.00;;;;;16.23;43.28;100146.28;4987163;28;46055;-61
2022/04/22 00:12:52;;;;;;;;;7.50;6.75;;;;;16.18;43.53;100141.38;4984301;28;46506;-60
2022/04/22 00:15:17;;;;;;;;;9.75;8.75;;;;;16.17;43.52;100140.53;4982825;28;45638;-60
2022/04/22 00:17:43;;;;;;;;;11.25;10.00;;;;;16.18;43.64;100138.72;4984239;28;45853;-60
2022/04/22 00:20:11;;;;;;;;;8.00;7.00;;;;;16.17;43.75;100147.66;4987505;28;46258;-59
2022/04/22 00:22:39;;;;;;;;;7.00;6.50;;;;;16.15;43.85;100141.66;4983497;28;45549;-60
2022/04/22 00:25:05;;;;;;;;;11.25;8.75;;;;;16.15;43.88;100139.00;4985037;28;45389;-60
2022/04/22 00:27:31;;;;;;;;;7.75;6.00;;;;;16.12;44.19;100145.44;4980319;28;45428;-59
2022/04/22 00:29:56;;;;;;;;;10.00;7.75;;;;;16.09;43.95;100142.22;4987463;28;45370;-60
2022/04/22 00:32:22;;;;;;;;;8.25;8.00;;;;;16.05;44.02;100139.03;4988699;28;45659;-60
2022/04/22 00:34:47;;;;;;;;;10.75;7.50;;;;;16.04;44.14;100141.81;4983787;28;45548;-60
2022/04/22 00:37:13;;;;;;;;;7.50;7.50;;;;;16.02;44.44;100138.44;4983154;28;45551;-60
2022/04/22 00:39:38;;;;;;;;;10.50;9.00;;;;;16.01;44.46;100144.75;4984535;28;46142;-59
2022/04/22 00:42:09;;;;;;;;;9.00;8.50;;;;;15.99;44.51;100139.56;4989092;28;45360;-59
2022/04/22 00:44:34;;;;;;;;;7.50;7.00;;;;;15.97;44.39;100141.53;4990118;28;45504;-60
2022/04/22 00:47:00;;;;;;;;;7.25;7.25;;;;;15.93;44.69;100132.16;4988312;28;45457;-59
2022/04/22 00:49:25;;;;;;;;;9.00;9.00;;;;;15.92;44.46;100135.78;4987840;28;45409;-59
2022/04/22 00:51:51;;;;;;;;;8.25;7.50;;;;;15.90;44.84;100135.94;4987076;28;45403;-60
2022/04/22 00:54:16;;;;;;;;;8.00;8.00;;;;;15.88;44.96;100132.59;4990594;28;45539;-59
2022/04/22 00:56:42;;;;;;;;;8.25;8.25;;;;;15.87;44.87;100130.06;4991259;28;45438;-59
2022/04/22 00:59:10;;;;;;;;;9.00;6.25;;;;;15.85;45.02;100137.34;4972418;28;46564;-60
2022/04/22 01:01:37;;;;;;;;;7.25;7.25;;;;;15.84;44.93;100128.53;4984314;28;45567;-61
2022/04/22 01:09:48;;;;;;;;;9.25;9.25;;;;;15.70;45.20;100120.97;4985580;28;45526;-61
2022/04/22 01:12:15;;;;;;;;;8.00;8.00;;;;;15.68;45.22;100116.78;4988435;28;45904;-62
2022/04/22 01:14:41;;;;;;;;;10.75;7.50;;;;;15.66;45.41;100110.78;4987251;28;45545;-61
2022/04/22 01:17:07;;;;;;;;;8.00;7.50;;;;;15.64;45.56;100110.94;4990843;28;45551;-61
2022/04/22 01:19:33;;;;;;;;;13.25;9.50;;;;;15.62;45.60;100107.56;4971723;28;45515;-62
2022/04/22 01:21:59;;;;;;;;;8.00;8.00;;;;;15.62;45.85;100105.72;4988557;28;45423;-62
2022/04/22 01:24:25;;;;;;;;;5.75;5.50;;;;;15.62;45.49;100116.34;4982263;28;45549;-61
2022/04/22 01:26:55;;;;;;;;;11.00;8.25;;;;;15.62;45.48;100105.72;4991219;28;45837;-62
2022/04/22 01:29:21;;;;;;;;;11.00;7.25;;;;;15.64;45.84;100108.28;4991050;28;45555;-62
2022/04/22 01:31:47;;;;;;;;;10.50;8.00;;;;;15.65;45.92;100109.94;4989539;28;45546;-62
2022/04/22 01:34:13;;;;;;;;;8.75;8.75;;;;;15.65;45.58;100109.09;4986521;28;45479;-62
2022/04/22 01:36:39;;;;;;;;;9.00;9.00;;;;;15.63;46.26;100102.09;4988431;28;45401;-62
2022/04/22 01:39:05;;;;;;;;;11.50;7.75;;;;;15.59;46.16;100105.16;4981944;28;45510;-62
2022/04/22 01:41:30;;;;;;;;;8.50;7.00;;;;;15.55;46.17;100101.06;4991191;28;45458;-62
2022/04/22 01:43:57;;;;;;;;;9.00;9.00;;;;;15.53;46.08;100101.22;4989817;28;45600;-62
2022/04/22 01:46:23;;;;;;;;;8.00;8.00;;;;;15.48;46.34;100094.63;4989663;28;45782;-62
2022/04/22 01:48:49;;;;;;;;;8.25;8.25;;;;;15.42;46.53;100093.41;4983930;28;45896;-61
2022/04/22 01:51:14;;;;;;;;;9.50;7.50;;;;;15.41;46.39;100090.88;4986910;28;45879;-62
2022/04/22 01:53:40;;;;;;;;;4.25;4.25;;;;;15.36;46.37;100096.59;4989647;28;45522;-62
2022/04/22 01:56:06;;;;;;;;;9.00;8.00;;;;;15.32;47.04;100082.78;4989683;28;45627;-62
2022/04/22 01:58:32;;;;;;;;;7.75;7.75;;;;;15.29;47.02;100091.00;4985708;28;45506;-62
2022/04/22 02:00:58;;;;;;;;;11.75;7.00;;;;;15.28;46.86;100099.09;4987945;28;45487;-62
2022/04/22 02:03:23;;;;;;;;;9.00;7.75;;;;;15.27;46.91;100090.28;4981694;28;45492;-62
2022/04/22 02:05:49;;;;;;;;;7.50;7.00;;;;;15.24;46.90;100093.19;4990975;28;45511;-62
2022/04/22 02:08:15;;;;;;;;;7.75;7.50;;;;;15.20;47.25;100097.13;4989150;28;47070;-62
2022/04/22 02:10:43;;;;;;;;;6.75;6.25;;;;;15.16;46.85;100089.56;4986944;28;45409;-63
2022/04/22 02:13:09;;;;;;;;;6.75;6.00;;;;;15.15;46.84;100085.22;4985884;28;45735;-61
2022/04/22 02:15:35;;;;;;;;;5.25;5.25;;;;;15.15;46.90;100090.53;4989509;28;45419;-62
2022/04/22 02:18:00;;;;;;;;;9.00;8.25;;;;;15.15;47.23;100091.38;4987710;28;45579;-62
2022/04/22 02:20:26;;;;;;;;;10.25;10.00;;;;;15.17;47.44;100088.63;4989280;28;45452;-62
2022/04/22 02:22:51;;;;;;;;;13.50;8.50;;;;;15.17;47.24;100084.13;4985685;28;46890;-61
2022/04/22 02:25:17;;;;;;;;;7.75;7.75;;;;;15.15;47.08;100082.56;4989540;28;45350;-61
2022/04/22 02:30:27;;;;;;;;;9.00;7.75;;;;;15.17;47.25;100072.69;4987070;28;45420;-61
2022/04/22 02:32:52;;;;;;;;;13.25;11.00;;;;;15.17;46.93;100075.34;4984670;28;45431;-61
2022/04/22 02:35:21;;;;;;;;;8.25;8.00;;;;;15.13;47.16;100076.56;4985715;28;45388;-62
2022/04/22 02:37:50;;;;;;;;;9.25;7.50;;;;;15.13;47.04;100073.94;4984845;28;45407;-62
2022/04/22 02:45:26;;;;;;;;;6.25;6.25;;;;;15.09;47.19;100076.03;4989795;28;46607;-61
2022/04/22 02:45:46;;;;;;;;;6.25;6.25;;;;;15.01;47.13;100063.44;4986240;28;45553;-62
2022/04/22 02:48:11;;;;;;;;;10.25;8.00;;;;;15.00;47.10;100064.38;4985496;28;46016;-60
2022/04/22 02:50:37;;;;;;;;;7.00;7.00;;;;;15.00;47.43;100071.50;4989204;28;45427;-61
2022/04/22 02:53:02;;;;;;;;;9.50;8.00;;;;;14.98;47.52;100063.69;4988165;28;45495;-61
2022/04/22 02:55:28;;;;;;;;;11.25;8.00;;;;;15.00;47.55;100068.84;4986766;28;45407;-62
2022/04/22 02:57:53;;;;;;;;;9.00;7.00;;;;;15.00;47.48;100061.72;4985637;28;45427;-62
2022/04/22 03:00:19;;;;;;;;;8.50;8.25;;;;;14.96;47.43;100059.50;4985221;28;45656;-62
2022/04/22 03:02:45;;;;;;;;;9.00;7.75;;;;;14.93;47.69;100055.31;4989111;28;45491;-61
2022/04/22 03:05:11;;;;;;;;;12.00;8.25;;;;;14.92;47.69;100056.28;4988849;28;45732;-61
2022/04/22 03:07:37;;;;;;;;;9.75;7.25;;;;;14.88;47.49;100062.84;4986296;28;46065;-61
2022/04/22 03:10:04;;;;;;;;;9.00;8.00;;;;;14.85;47.53;100060.47;4986826;28;45536;-61
2022/04/22 03:12:30;;;;;;;;;17.00;10.25;;;;;14.83;47.49;100058.91;4987379;28;45428;-60
2022/04/22 03:14:56;;;;;;;;;12.50;10.50;;;;;14.77;47.74;100062.91;4988929;28;45636;-61
2022/04/22 03:17:22;;;;;;;;;8.00;7.75;;;;;14.72;47.50;100052.72;4987658;28;45585;-61
2022/04/22 03:19:48;;;;;;;;;10.50;10.50;;;;;14.71;47.92;100055.53;4987236;28;45372;-61
2022/04/22 03:22:14;;;;;;;;;9.25;8.00;;;;;14.67;48.00;100056.75;4966681;28;45465;-62
2022/04/22 03:24:39;;;;;;;;;8.25;8.00;;;;;14.66;47.88;100057.72;4989155;28;45309;-61
2022/04/22 03:27:04;;;;;;;;;11.75;10.00;;;;;14.63;47.82;100064.16;4988382;28;45412;-62
2022/04/22 03:29:30;;;;;;;;;5.00;3.00;;;;;14.56;47.86;100062.16;4988121;28;45367;-61
2022/04/22 03:31:55;;;;;;;;;8.75;8.00;;;;;14.54;48.23;100053.50;4986375;28;45629;-62
2022/04/22 03:34:22;;;;;;;;;12.75;10.25;;;;;14.52;48.38;100059.75;4982897;28;45501;-62
2022/04/22 03:36:49;;;;;;;;;9.50;9.50;;;;;14.52;48.40;100057.09;4987375;28;45490;-62
2022/04/22 03:39:15;;;;;;;;;13.25;11.50;;;;;14.51;48.40;100051.94;4989311;28;45683;-61
2022/04/22 03:41:40;;;;;;;;;11.75;8.25;;;;;14.53;48.50;100055.28;4987601;28;45430;-61
2022/04/22 03:44:06;;;;;;;;;12.00;10.25;;;;;14.52;48.31;100051.81;4986152;28;45650;-61
2022/04/22 03:46:32;;;;;;;;;10.75;8.75;;;;;14.52;48.59;100050.97;4983025;28;45554;-61
2022/04/22 03:49:00;;;;;;;;;13.75;10.50;;;;;14.52;48.53;100051.81;4981943;28;45456;-62
2022/04/22 03:51:28;;;;;;;;;10.00;8.75;;;;;14.51;48.65;100046.66;4985006;28;45483;-61
2022/04/22 03:53:54;;;;;;;;;10.75;9.25;;;;;14.51;48.30;100046.66;4985638;28;45723;-62
2022/04/22 03:59:05;;;;;;;;;10.75;10.75;;;;;14.42;48.52;100052.72;4984907;28;45518;-62
2022/04/22 04:01:31;;;;;;;;;13.00;9.25;;;;;14.38;48.68;100048.66;4985068;28;45387;-61
2022/04/22 04:03:56;;;;;;;;;9.25;8.00;;;;;14.37;48.72;100046.97;4985911;28;45418;-62
2022/04/22 04:06:23;;;;;;;;;9.75;8.00;;;;;14.36;48.86;100042.63;4988826;28;45418;-61
2022/04/22 04:15:57;;;;;;;;;14.00;13.25;;;;;14.33;48.74;100037.59;4986485;28;45315;-61
2022/04/22 04:17:04;;;;;;;;;11.00;11.00;;;;;14.25;49.01;100046.22;4988278;28;45825;-62
2022/04/22 04:24:58;;;;;;;;;36.50;30.00;;;;;14.04;49.59;100042.72;4991159;28;45377;-62
2022/04/22 04:27:23;;;;;;;;;33.25;31.25;;;;;13.96;49.49;100036.28;4989917;28;45876;-62
2022/04/22 04:29:49;;;;;;;;;33.75;31.50;;;;;13.94;49.83;100035.56;4988796;28;45413;-62
2022/04/22 04:32:17;;;;;;;;;31.75;31.50;;;;;13.92;49.74;100032.22;4987457;28;45616;-62
2022/04/22 04:34:44;;;;;;;;;33.25;32.75;;;;;13.92;49.86;100037.53;4990564;28;45576;-62
2022/04/22 04:37:10;;;;;;;;;32.50;30.75;;;;;13.93;49.88;100030.41;4989622;28;45707;-62
2022/04/22 04:39:35;;;;;;;;;39.75;35.00;;;;;13.89;50.00;100028.97;4990487;28;45782;-62
2022/04/22 04:42:02;;;;;;;;;40.00;33.25;;;;;13.86;50.00;100027.44;4987056;28;45439;-62
2022/04/22 04:44:28;;;;;;;;;40.75;33.50;;;;;13.86;50.22;100031.91;4986720;28;45521;-62
2022/04/22 04:46:54;;;;;;;;;40.00;32.50;;;;;13.87;50.45;100034.41;4991788;28;45574;-62
2022/04/22 04:49:19;;;;;;;;;42.50;33.50;;;;;13.82;50.21;100031.31;4991196;28;45395;-62
2022/04/22 04:51:45;;;;;;;;;42.25;33.00;;;;;13.81;50.34;100037.56;4988135;28;45427;-62
2022/04/22 04:54:10;;;;;;;;;35.00;30.75;;;;;13.77;50.49;100027.38;4988238;28;45885;-61
2022/04/22 04:56:36;;;;;;;;;40.25;33.00;;;;;13.75;50.46;100029.31;4985801;28;45458;-62
2022/04/22 04:59:01;;;;;;;;;32.00;27.50;;;;;13.77;50.54;100035.31;4989504;28;45446;-62
2022/04/22 05:01:27;;;;;;;;;21.75;18.50;;;;;13.77;50.32;100027.38;4989857;28;45510;-62
2022/04/22 05:03:52;;;;;;;;;30.00;24.50;;;;;13.74;50.41;100023.16;4989708;28;45436;-62
2022/04/22 05:06:19;;;;;;;;;22.00;18.50;;;;;13.74;50.63;100020.50;4987592;28;45999;-62
2022/04/22 05:08:45;;;;;;;;;20.75;17.00;;;;;13.69;50.60;100022.72;4986025;28;45573;-62
2022/04/22 05:11:10;;;;;;;;;21.00;20.75;;;;;13.67;50.61;100014.94;4987040;28;45448;-62
2022/04/22 05:13:36;;;;;;;;;16.50;14.50;;;;;13.66;50.66;100020.31;4991230;28;45741;-62
2022/04/22 05:16:02;;;;;;;;;19.75;15.50;;;;;13.64;50.65;100015.16;4989456;28;45404;-62
2022/04/22 05:18:27;;;;;;;;;19.50;15.25;;;;;13.65;50.86;100018.66;4987658;28;45450;-62
2022/04/22 05:20:53;;;;;;;;;16.75;15.00;;;;;13.64;50.80;100016.97;4984954;28;45565;-62
2022/04/22 05:23:18;;;;;;;;;17.50;14.50;;;;;13.63;50.95;100016.13;4983758;28;45453;-61
2022/04/22 05:25:44;;;;;;;;;13.00;13.00;;;;;13.64;51.10;100012.50;4990056;28;46312;-61
2022/04/22 05:28:09;;;;;;;;;14.75;12.75;;;;;13.65;50.96;100005.41;4987427;28;45461;-61
2022/04/22 05:33:19;;;;;;;;;13.75;12.75;;;;;13.65;51.15;100016.84;4963001;28;45468;-62
2022/04/22 05:35:44;;;;;;;;;14.75;12.00;;;;;13.67;51.16;100019.38;4962731;28;46059;-61
2022/04/22 05:38:10;;;;;;;;;17.00;15.25;;;;;13.68;51.03;100013.94;4962732;28;45376;-62
2022/04/22 05:40:37;;;;;;;;;16.25;12.75;;;;;13.71;51.27;100018.13;4962745;28;45477;-67
2022/04/22 05:43:08;;;;;;;;;15.00;12.50;;;;;13.75;51.31;100016.94;4963125;28;45513;-67
2022/04/22 05:45:35;;;;;;;;;17.75;14.00;;;;;13.80;51.22;100011.22;4962762;28;46429;-67
2022/04/22 05:48:00;;;;;;;;;15.25;12.00;;;;;13.85;51.09;100012.53;4967633;28;45471;-67
2022/04/22 05:50:27;;;;;;;;;15.00;11.25;;;;;13.93;51.48;100022.47;4962316;28;45312;-67
2022/04/22 05:52:53;;;;;;;;;14.50;14.50;;;;;14.01;51.26;100021.81;4962366;28;45786;-67
2022/04/22 05:55:22;;;;;;;;;17.75;14.00;;;;;14.09;50.89;100019.34;4962157;28;45386;-67
2022/04/22 05:57:49;;;;;;;;;17.50;11.25;;;;;14.21;50.90;100020.94;4987301;28;45303;-67
2022/04/22 06:00:18;;;;;;;;;13.75;12.00;;;;;14.34;50.52;100020.75;4967951;28;45247;-68
2022/04/22 06:02:44;;;;;;;;;8.50;7.00;;;;;14.41;50.47;100027.19;4962414;28;45420;-69
2022/04/22 06:05:12;;;;;;;;;15.00;13.50;;;;;14.52;50.45;100021.81;4962392;28;45428;-69
2022/04/22 06:07:39;;;;;;;;;10.00;8.75;;;;;14.65;49.98;100029.53;4962341;28;45326;-65
2022/04/22 06:12:50;;;;;;;;;12.75;12.00;;;;;14.84;49.89;100034.06;4981970;28;45360;-68
2022/04/22 06:15:16;;;;;;;;;15.50;15.00;;;;;14.92;49.80;100032.41;4981850;28;45405;-67
2022/04/22 06:17:41;;;;;;;;;14.75;13.50;;;;;15.03;49.56;100034.97;4981240;28;45560;-67
2022/04/22 06:20:07;;;;;;;;;14.50;14.50;;;;;15.06;49.43;100029.38;4983001;28;45318;-67
2022/04/22 06:22:33;;;;;;;;;19.25;15.25;;;;;15.13;49.38;100023.53;4982010;28;45391;-67
2022/04/22 06:24:58;;;;;;;;;12.50;11.00;;;;;15.20;49.29;100025.50;4980718;28;45303;-67
2022/04/22 06:27:29;;;;;;;;;14.25;11.75;;;;;15.23;49.33;100027.84;4982244;28;45242;-66
2022/04/22 06:29:56;;;;;;;;;14.25;12.75;;;;;15.22;49.43;100028.84;4982334;28;45475;-68
2022/04/22 06:32:26;;;;;;;;;18.50;14.00;;;;;15.28;49.14;100032.75;4982243;28;45508;-68
2022/04/22 06:34:52;;;;;;;;;14.25;14.25;;;;;15.33;49.15;100028.72;4982031;28;46105;-67
2022/04/22 06:37:18;;;;;;;;;13.00;12.25;;;;;15.38;49.05;100028.28;4981896;28;45372;-67
2022/04/22 06:47:58;;;;;;;;;11.75;11.75;;;;;15.72;48.74;100018.13;4981984;28;45338;-68
2022/04/22 06:50:24;;;;;;;;;20.50;16.50;;;;;15.80;48.60;100026.22;4981891;28;45245;-67
2022/04/22 06:52:49;;;;;;;;;18.75;17.00;;;;;15.83;48.77;100017.97;4981725;28;45175;-68
2022/04/22 06:55:17;;;;;;;;;11.50;11.50;;;;;15.88;48.95;100014.91;4981373;28;46189;-68
2022/04/22 06:57:49;;;;;;;;;16.25;15.00;;;;;15.91;48.66;100018.09;4981792;28;45186;-67
2022/04/22 07:00:16;;;;;;;;;16.50;13.00;;;;;15.94;48.64;100010.81;4981970;28;45300;-68
2022/04/22 07:02:42;;;;;;;;;19.25;15.00;;;;;16.03;48.52;100009.94;4982004;28;45455;-68
2022/04/22 07:05:09;;;;;;;;;14.25;12.50;;;;;16.04;48.16;100011.66;4981486;28;45563;-67
2022/04/22 07:07:34;;;;;;;;;15.00;14.50;;;;;16.06;48.40;100009.69;4981488;28;45430;-68
2022/04/22 07:10:00;;;;;;;;;12.00;11.00;;;;;16.02;48.22;100003.78;4981630;28;45245;-68
2022/04/22 07:12:27;;;;;;;;;17.25;12.75;;;;;16.04;48.65;100012.47;4981629;28;45545;-67
2022/04/22 07:15:06;;;;;;;;;13.75;13.75;;;;;16.08;48.36;99992.59;4981592;28;45493;-68
2022/04/22 07:17:38;;;;;;;;;14.00;11.50;;;;;16.12;48.64;100011.75;4981586;28;45308;-68
2022/04/22 07:20:09;;;;;;;;;13.25;12.00;;;;;16.14;48.35;100004.47;4982503;28;45309;-68
2022/04/22 07:22:39;;;;;;;;;15.00;13.25;;;;;16.15;47.94;99999.00;4981308;28;45490;-69
2022/04/22 07:25:09;;;;;;;;;8.25;7.25;;;;;16.14;48.05;99994.69;4981174;28;45564;-68
2022/04/22 07:27:40;;;;;;;;;16.25;12.75;;;;;16.14;47.76;100005.31;4981222;28;45412;-68
2022/04/22 07:30:08;;;;;;;;;17.50;13.75;;;;;16.15;48.04;99998.19;4981450;28;45253;-68
2022/04/22 07:32:37;;;;;;;;;14.00;14.00;;;;;16.17;48.03;100014.81;4981474;28;45511;-68
2022/04/22 07:35:12;;;;;;;;;17.00;14.75;;;;;16.15;47.68;100006.16;4981222;28;46445;-68
2022/04/22 07:37:55;;;;;;;;;15.75;15.75;;;;;16.14;47.66;100004.47;4981024;28;45392;-67
2022/04/22 07:40:22;;;;;;;;;18.75;16.75;;;;;16.12;47.76;100009.94;4981449;28;45353;-69
2022/04/22 07:48:20;;;;;;;;;19.50;14.75;;;;;16.08;48.00;99995.25;4981451;28;45277;-68
2022/04/22 07:50:47;;;;;;;;;17.00;13.00;;;;;16.14;47.77;100001.81;4981001;28;45475;-68
2022/04/22 07:53:14;;;;;;;;;13.50;11.50;;;;;16.14;48.04;99991.19;4983838;28;45239;-69
2022/04/22 07:55:40;;;;;;;;;17.00;13.75;;;;;16.17;47.89;99999.69;4984081;28;46152;-68
2022/04/22 07:58:06;;;;;;;;;17.25;16.75;;;;;16.21;47.94;99991.47;4984604;28;45378;-68
2022/04/22 08:00:32;;;;;;;;;15.00;14.00;;;;;16.27;47.86;99996.16;4984677;28;45346;-68
2022/04/22 08:02:58;;;;;;;;;16.50;12.50;;;;;16.28;47.66;99996.03;4984595;28;45563;-67
2022/04/22 08:05:23;;;;;;;;;14.25;13.50;;;;;16.34;48.03;99998.09;4984275;28;45374;-68
2022/04/22 08:07:49;;;;;;;;;17.75;13.50;;;;;16.38;47.73;100002.16;4984191;28;45429;-69
2022/04/22 08:10:14;;;;;;;;;14.00;14.00;;;;;16.41;47.65;100004.50;4983865;28;45250;-69
2022/04/22 08:12:40;;;;;;;;;16.00;14.50;;;;;16.43;47.45;100007.00;4984417;28;45519;-68
2022/04/22 08:15:05;;;;;;;;;15.25;15.00;;;;;16.44;47.40;100006.91;4984106;28;45565;-69
2022/04/22 08:17:37;;;;;;;;;15.25;14.25;;;;;16.51;47.55;100001.84;4984385;28;45215;-69
2022/04/22 08:20:06;;;;;;;;;14.75;13.00;;;;;16.60;47.69;99998.28;4984855;28;45288;-69
2022/04/22 08:22:32;;;;;;;;;14.75;14.75;;;;;16.66;47.53;99996.84;4984038;28;45510;-69
2022/04/22 08:24:58;;;;;;;;;18.75;15.50;;;;;16.70;47.51;99988.47;4984217;28;45394;-68
2022/04/22 08:27:26;;;;;;;;;19.00;14.50;;;;;16.78;47.72;99993.03;4984132;28;45340;-68
2022/04/22 08:29:52;;;;;;;;;13.50;12.25;;;;;16.84;46.85;99995.09;4984119;28;45341;-69
2022/04/22 08:32:17;;;;;;;;;12.00;10.00;;;;;16.90;46.47;99980.34;4983878;28;45384;-69
2022/04/22 08:34:44;;;;;;;;;19.00;14.00;;;;;16.94;45.72;99987.06;4984060;28;46113;-69
2022/04/22 08:37:11;;;;;;;;;12.00;12.00;;;;;16.96;45.74;99980.59;4983737;28;45245;-68
2022/04/22 08:39:36;;;;;;;;;13.50;13.50;;;;;17.02;45.58;99979.16;4984147;28;45218;-68
2022/04/22 08:42:03;;;;;;;;;11.50;9.00;;;;;17.04;45.10;99977.19;4984028;28;45308;-68
2022/04/22 08:44:30;;;;;;;;;13.50;10.75;;;;;17.08;45.05;99975.06;4983773;28;45348;-69
2022/04/22 08:49:58;;;;;;;;;14.75;12.50;;;;;17.21;44.95;99971.00;4983705;28;45510;-68
2022/04/22 08:52:26;;;;;;;;;13.50;12.25;;;;;17.28;44.79;99966.75;4983996;28;45337;-69
2022/04/22 08:54:53;;;;;;;;;10.75;10.25;;;;;17.31;44.70;99968.31;4983314;28;45428;-69
2022/04/22 08:57:21;;;;;;;;;11.25;10.00;;;;;17.34;44.51;99975.13;4983547;28;45179;-69
2022/04/22 08:59:47;;;;;;;;;11.50;11.50;;;;;17.34;44.55;99972.47;4983868;28;45449;-69
2022/04/22 09:02:21;;;;;;;;;16.50;14.75;;;;;17.37;44.51;99973.00;4983648;28;45499;-68
2022/04/22 09:04:47;;;;;;;;;11.75;11.75;;;;;17.45;44.76;99969.56;4983595;28;45488;-67
2022/04/22 09:07:13;;;;;;;;;16.25;10.25;;;;;17.48;44.17;99970.09;4983553;28;45364;-67
2022/04/22 09:09:40;;;;;;;;;7.00;6.00;;;;;17.53;43.33;99972.28;4982073;28;45262;-68
2022/04/22 09:12:13;;;;;;;;;13.75;8.75;;;;;17.51;43.58;99969.78;4972094;28;45329;-68
2022/04/22 09:14:45;;;;;;;;;12.25;8.75;;;;;17.59;43.88;99961.84;4983136;28;45462;-68
2022/04/22 09:17:15;;;;;;;;;12.25;10.75;;;;;17.70;43.16;99959.97;4983378;28;45271;-68
2022/04/22 09:19:43;;;;;;;;;12.00;10.75;;;;;17.79;43.09;99962.53;4984088;28;45350;-69
2022/04/22 09:22:08;;;;;;;;;16.75;9.50;;;;;17.86;42.73;99960.09;4983178;28;45522;-69
2022/04/22 09:24:48;;;;;;;;;10.50;10.50;;;;;17.89;42.96;99962.44;4982822;28;46230;-69
2022/04/22 09:27:13;;;;;;;;;10.00;8.75;;;;;17.91;42.90;99962.28;4983221;28;45476;-68
2022/04/22 09:29:53;;;;;;;;;12.50;9.25;;;;;18.02;43.12;99956.69;4983173;28;45317;-69
2022/04/22 09:32:23;;;;;;;;;13.00;11.50;;;;;18.13;42.98;99954.59;4983098;28;45278;-68
2022/04/22 09:34:49;;;;;;;;;9.25;8.00;;;;;18.19;42.03;99954.94;4983242;28;46212;-68
2022/04/22 09:42:56;;;;;;;;;7.75;7.75;;;;;18.14;41.21;99944.75;4983326;28;45334;-68
2022/04/22 09:45:33;;;;;;;;;10.00;7.25;;;;;18.20;41.25;99945.97;4982763;28;45339;-69
2022/04/22 09:47:59;;;;;;;;;8.75;7.00;;;;;18.21;41.13;99950.28;4982833;28;45183;-68
2022/04/22 09:50:40;;;;;;;;;10.00;9.25;;;;;18.24;40.58;99947.28;4982809;28;45323;-68
2022/04/22 09:53:06;;;;;;;;;8.00;8.00;;;;;18.24;40.99;99952.63;4982686;28;45544;-68
2022/04/22 09:55:35;;;;;;;;;10.75;7.50;;;;;18.30;40.55;99942.16;4982270;28;45434;-69
2022/04/22 09:58:01;;;;;;;;;11.00;7.25;;;;;18.36;40.39;99943.38;4982450;28;45294;-68
2022/04/22 10:00:29;;;;;;;;;6.75;6.00;;;;;18.42;40.33;99934.72;4982549;28;45278;-68
2022/04/22 10:02:54;;;;;;;;;7.00;7.00;;;;;18.49;40.00;99934.94;4982619;28;45328;-68
2022/04/22 10:05:23;;;;;;;;;7.00;7.00;;;;;18.53;39.98;99950.41;4982617;28;45321;-68
2022/04/22 10:07:55;;;;;;;;;8.75;7.75;;;;;18.55;39.51;99937.75;4982444;28;45290;-68
2022/04/22 10:10:27;;;;;;;;;9.50;8.25;;;;;18.59;40.51;99925.78;4969621;28;45364;-69
2022/04/22 10:12:56;;;;;;;;;8.50;7.50;;;;;18.72;39.86;99936.00;4982560;28;45226;-68
2022/04/22 10:15:26;;;;;;;;;8.00;8.00;;;;;18.76;39.49;99928.53;4981537;28;46186;-69
2022/04/22 10:17:52;;;;;;;;;9.75;8.00;;;;;18.78;39.87;99927.34;4982353;28;45314;-69
2022/04/22 10:20:19;;;;;;;;;6.00;5.00;;;;;18.86;39.21;99924.69;4983572;28;45439;-68
2022/04/22 10:22:50;;;;;;;;;7.75;7.25;;;;;18.93;39.30;99930.22;4981960;28;45302;-69
2022/04/22 10:25:16;;;;;;;;;7.25;6.00;;;;;18.99;39.22;99921.56;4982060;28;45357;-68
2022/04/22 10:27:43;;;;;;;;;8.00;7.00;;;;;19.05;38.87;99920.06;4982096;28;45475;-68
2022/04/22 10:30:13;;;;;;;;;8.75;6.00;;;;;19.11;38.83;99911.38;4982045;28;45317;-68
2022/04/22 10:32:41;;;;;;;;;7.00;5.75;;;;;19.22;38.26;99916.41;4982050;28;45337;-69
2022/04/22 10:35:08;;;;;;;;;5.50;5.00;;;;;19.28;38.70;99904.22;4981961;28;45382;-68
2022/04/22 10:37:38;;;;;;;;;8.25;6.00;;;;;19.35;38.52;99898.03;4980510;28;45463;-69
2022/04/22 10:40:05;;;;;;;;;7.00;7.00;;;;;19.40;37.95;99909.03;4982096;28;45367;-68
2022/04/22 10:42:32;;;;;;;;;6.75;5.25;;;;;19.39;37.85;99914.56;4964548;28;45302;-68
2022/04/22 10:47:47;;;;;;;;;5.00;4.00;;;;;19.34;37.84;99895.53;4982005;28;45281;-68
2022/04/22 10:50:26;;;;;;;;;8.00;5.75;;;;;19.39;37.92;99914.56;4981923;28;45314;-68
2022/04/22 10:53:24;;;;;;;;;6.00;6.00;;;;;19.41;37.60;99909.88;4981890;28;45295;-68
2022/04/22 10:55:50;;;;;;;;;11.00;8.00;;;;;19.40;37.40;99917.06;4981642;28;45467;-67
2022/04/22 10:58:15;;;;;;;;;7.75;7.75;;;;;19.35;37.41;99913.22;4981785;28;45308;-68
2022/04/22 11:00:45;;;;;;;;;5.00;4.25;;;;;19.36;37.28;99899.72;4982161;28;45325;-68
2022/04/22 11:03:25;;;;;;;;;8.00;7.00;;;;;19.41;37.40;99901.88;4981863;28;45404;-68
2022/04/22 11:06:05;;;;;;;;;5.00;5.00;;;;;19.43;36.60;99897.19;4981647;28;45527;-68
2022/04/22 11:08:38;;;;;;;;;7.50;6.25;;;;;19.41;37.38;99899.19;4981358;28;45253;-67
2022/04/22 11:11:21;;;;;;;;;11.50;10.75;;;;;19.46;37.74;99899.53;4981661;28;45497;-68
2022/04/22 11:13:50;;;;;;;;;5.50;5.50;;;;;19.55;37.03;99890.50;4981596;28;45378;-67
2022/04/22 11:16:30;;;;;;;;;8.75;6.25;;;;;19.66;37.42;99884.00;4981179;28;45303;-68
2022/04/22 11:19:13;;;;;;;;;12.25;5.00;;;;;19.76;36.41;99888.16;4981463;28;45340;-68
2022/04/22 11:21:40;;;;;;;;;5.00;5.00;;;;;19.82;36.21;99891.97;4968284;28;45404;-67
2022/04/22 11:24:14;;;;;;;;;6.25;4.75;;;;;19.87;36.67;99888.78;4963832;28;45338;-68
2022/04/22 11:26:41;;;;;;;;;9.50;7.75;;;;;19.92;36.74;99889.13;4981240;28;45424;-68
2022/04/22 11:29:10;;;;;;;;;8.00;7.00;;;;;19.95;36.74;99878.91;4981299;28;45510;-67
2022/04/22 11:31:36;;;;;;;;;11.00;7.00;;;;;20.05;37.15;99886.72;4981655;28;45238;-68
2022/04/22 11:34:15;;;;;;;;;8.75;6.00;;;;;20.13;36.48;99875.16;4981608;28;45257;-68
2022/04/22 11:36:47;;;;;;;;;4.50;4.50;;;;;20.17;35.99;99885.34;4986489;28;46430;-68
2022/04/22 11:39:17;;;;;;;;;14.75;9.00;;;;;20.18;36.34;99883.50;4964230;28;45913;-66
2022/04/22 11:41:59;;;;;;;;;5.00;5.00;;;;;20.24;36.02;99877.47;4963131;28;45360;-71
2022/04/22 11:44:25;;;;;;;;;9.25;7.50;;;;;20.23;35.57;99879.31;4969067;28;45437;-74
2022/04/22 11:46:52;;;;;;;;;6.25;6.00;;;;;20.21;36.20;99877.81;4981091;28;45536;-72
2022/04/22 11:49:19;;;;;;;;;5.25;4.00;;;;;20.19;35.45;99867.28;4980736;28;45407;-67
2022/04/22 11:51:44;;;;;;;;;6.25;5.50;;;;;20.19;35.43;99866.44;4980556;28;45380;-66
2022/04/22 11:54:10;;;;;;;;;7.25;6.25;;;;;20.17;36.08;99874.66;4980004;28;45316;-68
2022/04/22 11:56:35;;;;;;;;;5.25;5.25;;;;;20.17;35.42;99868.47;4979530;28;46027;-68
2022/04/22 11:59:02;;;;;;;;;6.25;6.00;;;;;20.22;36.19;99866.09;4970453;28;45384;-67
2022/04/22 12:08:00;;;;;;;;;5.00;5.00;;;;;20.35;35.61;99855.66;4967534;28;45910;-71
2022/04/22 12:09:50;;;;;;;;;7.00;5.75;;;;;20.39;35.43;99865.03;4965789;28;45418;-69
2022/04/22 12:12:16;;;;;;;;;8.00;6.00;;;;;20.40;35.22;99858.66;4980363;28;45171;-63
2022/04/22 12:14:41;;;;;;;;;7.00;5.50;;;;;20.47;35.42;99864.19;4980563;28;45288;-71
2022/04/22 12:17:07;;;;;;;;;6.00;4.50;;;;;20.53;35.70;99850.91;4980500;28;45900;-73
2022/04/22 12:19:32;;;;;;;;;6.00;5.75;;;;;20.60;35.53;99848.34;4981160;28;45254;-66
2022/04/22 12:21:59;;;;;;;;;5.00;5.00;;;;;20.62;35.15;99847.19;4980061;28;45183;-67